createdAt,value
2023-02-03T00:00:39.216Z,9.05
2023-02-03T00:01:39.225Z,9.10
2023-02-03T00:02:39.275Z,9.02
2023-02-03T00:03:39.156Z,9.02
2023-02-03T00:04:39.140Z,9.08
2023-02-03T00:05:39.139Z,9.05
2023-02-03T00:06:39.138Z,9.04
2023-02-03T00:07:39.088Z,9.02
2023-02-03T00:08:39.120Z,9.05
2023-02-03T00:09:39.063Z,9.10
2023-02-03T00:10:39.064Z,9.10
2023-02-03T00:11:39.071Z,9.10
2023-02-03T00:12:46.568Z,9.08
2023-02-03T00:13:39.076Z,9.05
2023-02-03T00:14:39.004Z,9.08
2023-02-03T00:15:39.008Z,9.08
2023-02-03T00:16:39.059Z,9.05
2023-02-03T00:17:38.961Z,9.05
2023-02-03T00:18:38.958Z,9.01
2023-02-03T00:19:38.989Z,9.01
2023-02-03T00:20:38.946Z,8.99
2023-02-03T00:21:38.949Z,9.04
2023-02-03T00:22:38.912Z,9.02
2023-02-03T00:23:38.892Z,8.96
2023-02-03T00:24:38.888Z,9.02
2023-02-03T00:25:38.897Z,9.04
2023-02-03T00:26:38.850Z,9.01
2023-02-03T00:27:38.872Z,9.01
2023-02-03T00:28:38.817Z,8.99
2023-02-03T00:29:38.809Z,9.04
2023-02-03T00:30:38.820Z,9.04
2023-02-03T00:31:38.848Z,9.08
2023-02-03T00:32:38.944Z,9.08
2023-02-03T00:33:38.778Z,9.08
2023-02-03T00:34:38.758Z,9.08
2023-02-03T00:35:38.760Z,9.08
2023-02-03T00:36:38.711Z,9.10
2023-02-03T00:37:38.702Z,9.08
2023-02-03T00:38:38.755Z,9.11
2023-02-03T00:39:38.702Z,9.13
2023-02-03T00:40:38.675Z,9.08
2023-02-03T00:41:38.663Z,9.13
2023-02-03T00:42:38.669Z,9.10
2023-02-03T00:43:38.635Z,9.10
2023-02-03T00:44:38.596Z,9.13
2023-02-03T00:45:38.732Z,9.13
2023-02-03T00:46:38.611Z,9.14
2023-02-03T00:47:38.611Z,9.15
2023-02-03T00:48:38.557Z,9.13
2023-02-03T00:49:38.606Z,9.15
2023-02-03T00:50:38.539Z,9.13
2023-02-03T00:51:38.534Z,9.17
2023-02-03T00:52:38.524Z,9.15
2023-02-03T00:53:38.545Z,9.14
2023-02-03T00:54:38.463Z,9.11
2023-02-03T00:55:38.462Z,9.13
2023-02-03T00:56:38.468Z,9.17
2023-02-03T00:57:38.435Z,9.13
2023-02-03T00:58:38.442Z,9.17
2023-02-03T00:59:38.417Z,9.20
2023-02-03T01:00:38.400Z,9.21
2023-02-03T01:01:38.391Z,9.20
2023-02-03T01:02:38.462Z,9.18
2023-02-03T01:03:38.360Z,9.18
2023-02-03T01:04:38.366Z,9.20
2023-02-03T01:05:38.360Z,9.21
2023-02-03T01:06:38.353Z,9.21
2023-02-03T01:07:38.310Z,9.28
2023-02-03T01:08:38.342Z,9.24
2023-02-03T01:09:38.307Z,9.24
2023-02-03T01:10:38.288Z,9.23
2023-02-03T01:11:38.272Z,9.29
2023-02-03T01:12:38.247Z,9.33
2023-02-03T01:13:38.252Z,9.31
2023-02-03T01:14:38.218Z,9.33
2023-02-03T01:15:38.220Z,9.38
2023-02-03T01:16:38.287Z,9.39
2023-02-03T01:17:38.181Z,9.38
2023-02-03T01:18:38.176Z,9.42
2023-02-03T01:19:38.165Z,9.39
2023-02-03T01:20:38.145Z,9.42
2023-02-03T01:21:38.173Z,9.39
2023-02-03T01:22:39.474Z,9.40
2023-02-03T01:23:38.141Z,9.38
2023-02-03T01:24:38.115Z,9.38
2023-02-03T01:25:38.105Z,9.38
2023-02-03T01:26:38.053Z,9.39
2023-02-03T01:27:38.114Z,9.36
2023-02-03T01:28:38.025Z,9.36
2023-02-03T01:29:38.024Z,9.38
2023-02-03T01:30:38.060Z,9.39
2023-02-03T01:31:38.077Z,9.38
2023-02-03T01:32:37.982Z,9.39
2023-02-03T01:33:37.979Z,9.35
2023-02-03T01:34:37.969Z,9.38
2023-02-03T01:35:37.959Z,9.38
2023-02-03T01:36:37.936Z,9.38
2023-02-03T01:37:37.935Z,9.42
2023-02-03T01:38:37.902Z,9.42
2023-02-03T01:39:37.887Z,9.39
2023-02-03T01:40:37.900Z,9.40
2023-02-03T01:41:37.846Z,9.38
2023-02-03T01:42:37.866Z,9.43
2023-02-03T01:43:37.825Z,9.42
2023-02-03T01:44:37.825Z,9.40
2023-02-03T01:45:37.793Z,9.38
2023-02-03T01:46:37.799Z,9.42
2023-02-03T01:47:37.776Z,9.43
2023-02-03T01:48:37.782Z,9.40
2023-02-03T01:49:37.748Z,9.42
2023-02-03T01:50:37.734Z,9.38
2023-02-03T01:51:37.708Z,9.40
2023-02-03T01:52:37.703Z,9.40
2023-02-03T01:53:37.688Z,9.38
2023-02-03T01:54:37.711Z,9.40
2023-02-03T01:55:47.667Z,9.43
2023-02-03T01:56:37.664Z,9.48
2023-02-03T01:57:37.652Z,9.47
2023-02-03T01:58:37.644Z,9.47
2023-02-03T01:59:37.606Z,9.48
2023-02-03T02:00:37.620Z,9.47
2023-02-03T02:01:37.654Z,9.47
2023-02-03T02:02:37.657Z,9.48
2023-02-03T02:03:37.561Z,9.46
2023-02-03T02:04:37.568Z,9.48
2023-02-03T02:05:37.535Z,9.47
2023-02-03T02:06:37.542Z,9.48
2023-02-03T02:07:37.506Z,9.50
2023-02-03T02:08:37.481Z,9.50
2023-02-03T02:09:37.468Z,9.46
2023-02-03T02:10:37.468Z,9.47
2023-02-03T02:11:37.475Z,9.50
2023-02-03T02:12:37.436Z,9.47
2023-02-03T02:13:37.424Z,9.42
2023-02-03T02:14:37.415Z,9.43
2023-02-03T02:15:37.433Z,9.43
2023-02-03T02:16:37.409Z,9.46
2023-02-03T02:17:37.407Z,9.47
2023-02-03T02:18:37.360Z,9.47
2023-02-03T02:19:37.335Z,9.53
2023-02-03T02:20:37.328Z,9.54
2023-02-03T02:21:37.387Z,9.54
2023-02-03T02:22:37.311Z,9.51
2023-02-03T02:23:37.296Z,9.48
2023-02-03T02:24:51.974Z,9.46
2023-02-03T02:25:37.272Z,9.46
2023-02-03T02:26:37.261Z,9.48
2023-02-03T02:27:37.269Z,9.48
2023-02-03T02:28:37.243Z,9.47
2023-02-03T02:29:37.209Z,9.48
2023-02-03T02:30:39.563Z,9.43
2023-02-03T02:31:37.245Z,9.46
2023-02-03T02:32:37.186Z,9.46
2023-02-03T02:33:37.182Z,9.47
2023-02-03T02:34:37.150Z,9.47
2023-02-03T02:35:37.128Z,9.48
2023-02-03T02:36:37.109Z,9.47
2023-02-03T02:37:37.125Z,9.47
2023-02-03T02:38:37.109Z,9.43
2023-02-03T02:39:37.057Z,9.47
2023-02-03T02:40:37.151Z,9.47
2023-02-03T02:41:37.042Z,9.47
2023-02-03T02:42:37.013Z,9.43
2023-02-03T02:43:37.012Z,9.47
2023-02-03T02:44:37.013Z,9.42
2023-02-03T02:45:36.990Z,9.42
2023-02-03T02:46:37.014Z,9.43
2023-02-03T02:47:36.961Z,9.40
2023-02-03T02:48:36.968Z,9.42
2023-02-03T02:49:36.930Z,9.38
2023-02-03T02:50:36.916Z,9.42
2023-02-03T02:51:36.955Z,9.43
2023-02-03T02:52:36.890Z,9.42
2023-02-03T02:53:36.874Z,9.43
2023-02-03T02:54:36.887Z,9.46
2023-02-03T02:55:36.880Z,9.43
2023-02-03T02:56:36.823Z,9.40
2023-02-03T02:57:36.825Z,9.40
2023-02-03T02:58:36.819Z,9.39
2023-02-03T02:59:36.823Z,9.43
2023-02-03T03:00:36.804Z,9.42
2023-02-03T03:01:36.848Z,9.43
2023-02-03T03:02:36.778Z,9.39
2023-02-03T03:03:36.777Z,9.42
2023-02-03T03:04:36.815Z,9.42
2023-02-03T03:05:46.626Z,9.36
2023-02-03T03:06:36.715Z,9.38
2023-02-03T03:07:36.721Z,9.39
2023-02-03T03:08:36.693Z,9.35
2023-02-03T03:09:36.677Z,9.39
2023-02-03T03:10:36.679Z,9.38
2023-02-03T03:11:36.653Z,9.38
2023-02-03T03:12:36.643Z,9.39
2023-02-03T03:13:36.617Z,9.36
2023-02-03T03:14:36.604Z,9.40
2023-02-03T03:15:36.631Z,9.39
2023-02-03T03:16:36.593Z,9.42
2023-02-03T03:17:36.596Z,9.38
2023-02-03T03:18:36.520Z,9.38
2023-02-03T03:19:36.537Z,9.42
2023-02-03T03:20:36.522Z,9.39
2023-02-03T03:21:36.622Z,9.43
2023-02-03T03:22:36.505Z,9.43
2023-02-03T03:23:36.484Z,9.46
2023-02-03T03:24:36.463Z,9.43
2023-02-03T03:25:36.453Z,9.43
2023-02-03T03:26:36.443Z,9.43
2023-02-03T03:27:36.469Z,9.42
2023-02-03T03:28:36.427Z,9.43
2023-02-03T03:29:36.392Z,9.40
2023-02-03T03:30:36.451Z,9.38
2023-02-03T03:31:36.517Z,9.46
2023-02-03T03:32:36.389Z,9.42
2023-02-03T03:33:36.374Z,9.42
2023-02-03T03:34:36.362Z,9.43
2023-02-03T03:35:36.359Z,9.46
2023-02-03T03:36:36.295Z,9.43
2023-02-03T03:37:36.333Z,9.42
2023-02-03T03:38:36.325Z,9.43
2023-02-03T03:39:36.291Z,9.40
2023-02-03T03:40:38.992Z,9.42
2023-02-03T03:41:36.228Z,9.42
2023-02-03T03:42:36.240Z,9.42
2023-02-03T03:43:36.249Z,9.39
2023-02-03T03:44:36.274Z,9.43
2023-02-03T03:45:36.211Z,9.46
2023-02-03T03:46:36.305Z,9.40
2023-02-03T03:47:36.147Z,9.42
2023-02-03T03:48:36.187Z,9.40
2023-02-03T03:49:36.156Z,9.43
2023-02-03T03:50:36.135Z,9.43
2023-02-03T03:51:36.102Z,9.40
2023-02-03T03:52:36.085Z,9.43
2023-02-03T03:53:36.102Z,9.43
2023-02-03T03:54:36.069Z,9.43
2023-02-03T03:55:36.068Z,9.47
2023-02-03T03:56:36.097Z,9.42
2023-02-03T03:57:36.017Z,9.43
2023-02-03T03:58:36.013Z,9.43
2023-02-03T03:59:36.009Z,9.46
2023-02-03T04:00:35.987Z,9.40
2023-02-03T04:01:36.126Z,9.43
2023-02-03T04:02:36.137Z,9.50
2023-02-03T04:03:35.941Z,9.48
2023-02-03T04:04:35.940Z,9.48
2023-02-03T04:05:35.942Z,9.51
2023-02-03T04:06:35.901Z,9.48
2023-02-03T04:07:35.888Z,9.47
2023-02-03T04:08:35.894Z,9.47
2023-02-03T04:09:35.893Z,9.48
2023-02-03T04:10:35.860Z,9.50
2023-02-03T04:11:35.849Z,9.46
2023-02-03T04:12:35.860Z,9.46
2023-02-03T04:13:35.819Z,9.47
2023-02-03T04:14:35.830Z,9.46
2023-02-03T04:15:35.814Z,9.48
2023-02-03T04:16:35.867Z,9.50
2023-02-03T04:17:35.791Z,9.43
2023-02-03T04:18:35.783Z,9.47
2023-02-03T04:19:35.749Z,9.47
2023-02-03T04:20:35.748Z,9.50
2023-02-03T04:21:35.778Z,9.54
2023-02-03T04:22:35.696Z,9.53
2023-02-03T04:23:35.701Z,9.53
2023-02-03T04:24:35.682Z,9.51
2023-02-03T04:25:47.374Z,9.50
2023-02-03T04:26:35.652Z,9.54
2023-02-03T04:27:35.665Z,9.53
2023-02-03T04:28:35.643Z,9.53
2023-02-03T04:29:35.616Z,9.56
2023-02-03T04:30:35.726Z,9.56
2023-02-03T04:31:35.613Z,9.51
2023-02-03T04:32:35.607Z,9.53
2023-02-03T04:33:35.587Z,9.53
2023-02-03T04:34:35.536Z,9.54
2023-02-03T04:35:35.555Z,9.54
2023-02-03T04:36:35.518Z,9.53
2023-02-03T04:37:35.535Z,9.53
2023-02-03T04:38:35.502Z,9.53
2023-02-03T04:39:35.486Z,9.53
2023-02-03T04:40:35.480Z,9.51
2023-02-03T04:41:35.478Z,9.54
2023-02-03T04:42:35.485Z,9.57
2023-02-03T04:43:35.451Z,9.60
2023-02-03T04:44:35.401Z,9.60
2023-02-03T04:45:35.489Z,9.60
2023-02-03T04:46:35.422Z,9.57
2023-02-03T04:47:35.393Z,9.57
2023-02-03T04:48:35.371Z,9.58
2023-02-03T04:49:35.351Z,9.53
2023-02-03T04:50:35.360Z,9.51
2023-02-03T04:51:35.344Z,9.54
2023-02-03T04:52:35.299Z,9.51
2023-02-03T04:53:35.314Z,9.51
2023-02-03T04:54:35.321Z,9.50
2023-02-03T04:55:35.281Z,9.51
2023-02-03T04:56:35.240Z,9.54
2023-02-03T04:57:35.290Z,9.58
2023-02-03T04:58:35.220Z,9.56
2023-02-03T04:59:35.251Z,9.54
2023-02-03T05:00:46.605Z,9.51
2023-02-03T05:01:35.194Z,9.50
2023-02-03T05:02:35.214Z,9.51
2023-02-03T05:03:35.212Z,9.51
2023-02-03T05:04:35.153Z,9.50
2023-02-03T05:05:35.141Z,9.50
2023-02-03T05:06:35.139Z,9.50
2023-02-03T05:07:35.143Z,9.50
2023-02-03T05:08:35.119Z,9.53
2023-02-03T05:09:35.098Z,9.57
2023-02-03T05:10:35.087Z,9.51
2023-02-03T05:11:35.082Z,9.54
2023-02-03T05:12:35.034Z,9.54
2023-02-03T05:13:35.036Z,9.58
2023-02-03T05:14:35.029Z,9.58
2023-02-03T05:15:35.097Z,9.51
2023-02-03T05:16:35.039Z,9.51
2023-02-03T05:17:34.977Z,9.54
2023-02-03T05:18:35.016Z,9.53
2023-02-03T05:19:34.971Z,9.54
2023-02-03T05:20:34.958Z,9.56
2023-02-03T05:21:34.945Z,9.54
2023-02-03T05:22:34.953Z,9.54
2023-02-03T05:23:36.645Z,9.54
2023-02-03T05:24:34.910Z,9.56
2023-02-03T05:25:34.938Z,9.60
2023-02-03T05:26:34.868Z,9.61
2023-02-03T05:27:34.860Z,9.57
2023-02-03T05:28:34.877Z,9.57
2023-02-03T05:29:34.813Z,9.56
2023-02-03T05:30:34.841Z,9.56
2023-02-03T05:31:35.035Z,9.53
2023-02-03T05:32:34.776Z,9.58
2023-02-03T05:33:34.821Z,9.54
2023-02-03T05:34:34.773Z,9.57
2023-02-03T05:35:39.670Z,9.57
2023-02-03T05:36:34.794Z,9.61
2023-02-03T05:37:34.715Z,9.58
2023-02-03T05:38:34.706Z,9.61
2023-02-03T05:39:34.673Z,9.56
2023-02-03T05:40:34.663Z,9.56
2023-02-03T05:41:34.645Z,9.57
2023-02-03T05:42:34.655Z,9.57
2023-02-03T05:43:34.674Z,9.60
2023-02-03T05:44:34.627Z,9.58
2023-02-03T05:45:34.700Z,9.54
2023-02-03T05:46:34.583Z,9.58
2023-02-03T05:47:34.601Z,9.58
2023-02-03T05:48:34.606Z,9.61
2023-02-03T05:49:34.562Z,9.64
2023-02-03T05:50:36.779Z,9.61
2023-02-03T05:51:34.555Z,9.60
2023-02-03T05:52:34.515Z,9.64
2023-02-03T05:53:35.160Z,9.60
2023-02-03T05:54:34.516Z,9.57
2023-02-03T05:55:34.500Z,9.64
2023-02-03T05:56:34.500Z,9.64
2023-02-03T05:57:34.460Z,9.60
2023-02-03T05:58:34.427Z,9.58
2023-02-03T05:59:34.446Z,9.64
2023-02-03T06:00:34.509Z,9.61
2023-02-03T06:01:34.398Z,9.64
2023-02-03T06:02:34.394Z,9.68
2023-02-03T06:03:34.496Z,9.66
2023-02-03T06:04:34.367Z,9.64
2023-02-03T06:05:34.367Z,9.60
2023-02-03T06:06:34.343Z,9.58
2023-02-03T06:07:34.329Z,9.61
2023-02-03T06:08:34.307Z,9.60
2023-02-03T06:09:34.289Z,9.60
2023-02-03T06:10:45.477Z,9.61
2023-02-03T06:11:34.267Z,9.61
2023-02-03T06:12:34.246Z,9.64
2023-02-03T06:13:34.251Z,9.64
2023-02-03T06:14:34.230Z,9.60
2023-02-03T06:15:34.290Z,9.61
2023-02-03T06:16:34.222Z,9.65
2023-02-03T06:17:34.168Z,9.65
2023-02-03T06:18:42.865Z,9.61
2023-02-03T06:19:34.153Z,9.61
2023-02-03T06:20:34.171Z,9.61
2023-02-03T06:21:34.117Z,9.68
2023-02-03T06:22:34.126Z,9.65
2023-02-03T06:23:34.113Z,9.68
2023-02-03T06:24:34.091Z,9.69
2023-02-03T06:25:34.075Z,9.68
2023-02-03T06:26:34.049Z,9.66
2023-02-03T06:27:34.052Z,9.65
2023-02-03T06:28:34.032Z,9.66
2023-02-03T06:29:34.015Z,9.68
2023-02-03T06:30:34.069Z,9.66
2023-02-03T06:31:34.041Z,9.68
2023-02-03T06:32:34.006Z,9.69
2023-02-03T06:33:33.982Z,9.66
2023-02-03T06:34:34.025Z,9.66
2023-02-03T06:35:33.935Z,9.72
2023-02-03T06:36:33.925Z,9.68
2023-02-03T06:37:33.944Z,9.69
2023-02-03T06:38:33.897Z,9.68
2023-02-03T06:39:33.897Z,9.69
2023-02-03T06:40:33.874Z,9.65
2023-02-03T06:41:33.938Z,9.64
2023-02-03T06:42:33.889Z,9.66
2023-02-03T06:43:33.851Z,9.68
2023-02-03T06:44:33.843Z,9.71
2023-02-03T06:45:36.376Z,9.65
2023-02-03T06:46:33.852Z,9.66
2023-02-03T06:47:33.826Z,9.68
2023-02-03T06:48:33.751Z,9.69
2023-02-03T06:49:33.728Z,9.66
2023-02-03T06:50:33.783Z,9.66
2023-02-03T06:51:33.731Z,9.68
2023-02-03T06:52:33.745Z,9.71
2023-02-03T06:53:33.678Z,9.71
2023-02-03T06:54:33.708Z,9.71
2023-02-03T06:55:33.711Z,9.68
2023-02-03T06:56:33.640Z,9.71
2023-02-03T06:57:33.636Z,9.68
2023-02-03T06:58:33.624Z,9.66
2023-02-03T06:59:33.648Z,9.71
2023-02-03T07:00:33.627Z,9.69
2023-02-03T07:01:33.610Z,9.68
2023-02-03T07:02:33.589Z,9.74
2023-02-03T07:03:33.555Z,9.74
2023-02-03T07:04:33.533Z,9.71
2023-02-03T07:05:33.533Z,9.71
2023-02-03T07:06:33.516Z,9.69
2023-02-03T07:07:33.528Z,9.71
2023-02-03T07:08:33.485Z,9.69
2023-02-03T07:09:33.453Z,9.69
2023-02-03T07:10:33.524Z,9.71
2023-02-03T07:11:33.447Z,9.65
2023-02-03T07:12:33.492Z,9.71
2023-02-03T07:13:33.410Z,9.69
2023-02-03T07:14:33.497Z,9.71
2023-02-03T07:15:33.434Z,9.69
2023-02-03T07:16:33.434Z,9.69
2023-02-03T07:17:33.408Z,9.69
2023-02-03T07:18:46.763Z,9.69
2023-02-03T07:19:34.326Z,9.71
2023-02-03T07:20:33.316Z,9.72
2023-02-03T07:21:33.297Z,9.74
2023-02-03T07:22:33.340Z,9.75
2023-02-03T07:23:33.333Z,9.76
2023-02-03T07:24:33.257Z,9.76
2023-02-03T07:25:37.097Z,9.79
2023-02-03T07:26:33.226Z,9.74
2023-02-03T07:27:33.261Z,9.72
2023-02-03T07:28:33.211Z,9.76
2023-02-03T07:29:33.231Z,9.76
2023-02-03T07:30:33.267Z,9.75
2023-02-03T07:31:33.372Z,9.81
2023-02-03T07:32:33.928Z,9.74
2023-02-03T07:33:33.150Z,9.79
2023-02-03T07:34:33.226Z,9.75
2023-02-03T07:35:33.138Z,9.75
2023-02-03T07:36:33.102Z,9.76
2023-02-03T07:37:33.161Z,9.75
2023-02-03T07:38:33.130Z,9.76
2023-02-03T07:39:33.074Z,9.74
2023-02-03T07:40:33.094Z,9.75
2023-02-03T07:41:33.073Z,9.78
2023-02-03T07:42:33.105Z,9.75
2023-02-03T07:43:33.060Z,9.75
2023-02-03T07:44:33.007Z,9.75
2023-02-03T07:45:33.011Z,9.75
2023-02-03T07:46:32.993Z,9.74
2023-02-03T07:47:32.941Z,9.74
2023-02-03T07:48:32.955Z,9.76
2023-02-03T07:49:33.038Z,9.74
2023-02-03T07:50:32.962Z,9.72
2023-02-03T07:51:32.950Z,9.72
2023-02-03T07:52:32.894Z,9.71
2023-02-03T07:53:33.022Z,9.71
2023-02-03T07:54:32.923Z,9.72
2023-02-03T07:55:32.869Z,9.74
2023-02-03T07:56:32.846Z,9.75
2023-02-03T07:57:32.873Z,9.74
2023-02-03T07:58:32.875Z,9.78
2023-02-03T07:59:32.793Z,9.76
2023-02-03T08:00:32.771Z,9.75
2023-02-03T08:01:32.797Z,9.76
2023-02-03T08:02:32.768Z,9.72
2023-02-03T08:03:32.731Z,9.75
2023-02-03T08:04:32.785Z,9.75
2023-02-03T08:05:32.771Z,9.76
2023-02-03T08:06:32.769Z,9.78
2023-02-03T08:07:32.717Z,9.76
2023-02-03T08:08:32.678Z,9.75
2023-02-03T08:09:32.641Z,9.78
2023-02-03T08:10:37.091Z,9.81
2023-02-03T08:11:32.714Z,9.79
2023-02-03T08:12:32.631Z,9.79
2023-02-03T08:13:32.651Z,9.79
2023-02-03T08:14:32.577Z,9.79
2023-02-03T08:15:32.559Z,9.83
2023-02-03T08:16:32.619Z,9.79
2023-02-03T08:17:32.579Z,9.83
2023-02-03T08:18:32.891Z,9.86
2023-02-03T08:19:32.544Z,9.89
2023-02-03T08:20:32.496Z,9.81
2023-02-03T08:21:32.485Z,9.84
2023-02-03T08:22:32.477Z,9.86
2023-02-03T08:23:32.467Z,9.89
2023-02-03T08:24:32.432Z,9.87
2023-02-03T08:25:32.438Z,9.86
2023-02-03T08:26:32.432Z,9.89
2023-02-03T08:27:32.395Z,9.89
2023-02-03T08:28:32.375Z,9.86
2023-02-03T08:29:32.369Z,9.89
2023-02-03T08:30:32.385Z,9.86
2023-02-03T08:31:32.400Z,9.83
2023-02-03T08:32:32.319Z,9.89
2023-02-03T08:33:32.299Z,9.87
2023-02-03T08:34:32.300Z,9.84
2023-02-03T08:35:32.287Z,9.86
2023-02-03T08:36:32.293Z,9.87
2023-02-03T08:37:32.250Z,9.86
2023-02-03T08:38:32.262Z,9.87
2023-02-03T08:39:32.218Z,9.86
2023-02-03T08:40:32.229Z,9.86
2023-02-03T08:41:32.201Z,9.84
2023-02-03T08:42:32.199Z,9.84
2023-02-03T08:43:32.170Z,9.89
2023-02-03T08:44:32.179Z,9.86
2023-02-03T08:45:38.111Z,9.90
2023-02-03T08:46:32.206Z,9.89
2023-02-03T08:47:32.116Z,9.90
2023-02-03T08:48:32.121Z,9.87
2023-02-03T08:49:32.110Z,9.89
2023-02-03T08:50:39.594Z,9.87
2023-02-03T08:51:32.042Z,9.93
2023-02-03T08:52:39.624Z,9.89
2023-02-03T08:53:39.571Z,9.87
2023-02-03T08:54:32.009Z,9.87
2023-02-03T08:55:40.723Z,9.89
2023-02-03T08:56:39.516Z,9.90
2023-02-03T08:57:39.498Z,9.90
2023-02-03T08:58:31.984Z,9.89
2023-02-03T08:59:31.954Z,9.91
2023-02-03T09:00:31.961Z,9.93
2023-02-03T09:01:31.960Z,9.91
2023-02-03T09:02:31.955Z,9.90
2023-02-03T09:03:31.895Z,9.93
2023-02-03T09:04:31.943Z,9.93
2023-02-03T09:05:31.879Z,9.96
2023-02-03T09:06:31.870Z,9.97
2023-02-03T09:07:31.847Z,9.94
2023-02-03T09:08:31.829Z,9.99
2023-02-03T09:09:31.848Z,9.97
2023-02-03T09:10:31.796Z,9.96
2023-02-03T09:11:31.807Z,10.04
2023-02-03T09:12:31.768Z,10.01
2023-02-03T09:13:31.779Z,10.01
2023-02-03T09:14:40.435Z,9.97
2023-02-03T09:15:31.748Z,9.96
2023-02-03T09:16:31.735Z,9.99
2023-02-03T09:17:31.686Z,10.01
2023-02-03T09:18:31.690Z,9.99
2023-02-03T09:19:32.039Z,10.05
2023-02-03T09:20:32.072Z,10.07
2023-02-03T09:21:37.846Z,10.07
2023-02-03T09:22:32.653Z,10.05
2023-02-03T09:23:31.614Z,10.07
2023-02-03T09:24:31.630Z,10.12
2023-02-03T09:25:31.589Z,10.11
2023-02-03T09:26:31.602Z,10.11
2023-02-03T09:27:31.561Z,10.08
2023-02-03T09:28:31.552Z,10.11
2023-02-03T09:29:31.546Z,10.15
2023-02-03T09:30:31.963Z,10.15
2023-02-03T09:31:31.553Z,10.15
2023-02-03T09:32:31.517Z,10.15
2023-02-03T09:33:31.520Z,10.17
2023-02-03T09:34:31.471Z,10.18
2023-02-03T09:35:31.517Z,10.17
2023-02-03T09:36:31.492Z,10.17
2023-02-03T09:37:31.420Z,10.18
2023-02-03T09:38:31.405Z,10.20
2023-02-03T09:39:31.408Z,10.26
2023-02-03T09:40:31.483Z,10.26
2023-02-03T09:41:31.366Z,10.26
2023-02-03T09:42:31.435Z,10.25
2023-02-03T09:43:31.356Z,10.27
2023-02-03T09:44:31.349Z,10.29
2023-02-03T09:45:31.318Z,10.26
2023-02-03T09:46:31.332Z,10.27
2023-02-03T09:47:31.284Z,10.27
2023-02-03T09:48:31.282Z,10.30
2023-02-03T09:49:31.294Z,10.33
2023-02-03T09:50:31.283Z,10.36
2023-02-03T09:51:31.228Z,10.34
2023-02-03T09:52:31.217Z,10.34
2023-02-03T09:53:31.390Z,10.30
2023-02-03T09:54:31.197Z,10.34
2023-02-03T09:55:37.327Z,10.36
2023-02-03T09:56:31.175Z,10.40
2023-02-03T09:57:31.140Z,10.40
2023-02-03T09:58:31.134Z,10.41
2023-02-03T09:59:31.139Z,10.38
2023-02-03T10:00:31.152Z,10.40
2023-02-03T10:01:31.159Z,10.42
2023-02-03T10:02:31.145Z,10.41
2023-02-03T10:03:31.083Z,10.44
2023-02-03T10:04:31.063Z,10.44
2023-02-03T10:05:31.021Z,10.45
2023-02-03T10:06:31.013Z,10.44
2023-02-03T10:07:31.013Z,10.47
2023-02-03T10:08:31.009Z,10.42
2023-02-03T10:09:30.971Z,10.47
2023-02-03T10:10:31.121Z,10.47
2023-02-03T10:11:31.010Z,10.48
2023-02-03T10:12:30.938Z,10.51
2023-02-03T10:13:30.919Z,10.52
2023-02-03T10:14:30.893Z,10.55
2023-02-03T10:15:30.904Z,10.53
2023-02-03T10:16:30.960Z,10.53
2023-02-03T10:17:30.900Z,10.51
2023-02-03T10:18:30.847Z,10.51
2023-02-03T10:19:30.836Z,10.48
2023-02-03T10:20:30.843Z,10.53
2023-02-03T10:21:30.827Z,10.53
2023-02-03T10:22:30.802Z,10.53
2023-02-03T10:23:30.790Z,10.56
2023-02-03T10:24:30.757Z,10.52
2023-02-03T10:25:30.745Z,10.53
2023-02-03T10:26:30.790Z,10.51
2023-02-03T10:27:30.759Z,10.55
2023-02-03T10:28:30.728Z,10.56
2023-02-03T10:29:30.718Z,10.52
2023-02-03T10:30:35.711Z,10.55
2023-02-03T10:31:30.943Z,10.56
2023-02-03T10:32:30.645Z,10.53
2023-02-03T10:33:30.666Z,10.56
2023-02-03T10:34:30.642Z,10.56
2023-02-03T10:35:30.621Z,10.56
2023-02-03T10:36:30.598Z,10.56
2023-02-03T10:37:30.856Z,10.56
2023-02-03T10:38:30.576Z,10.59
2023-02-03T10:39:30.559Z,10.61
2023-02-03T10:40:30.944Z,10.63
2023-02-03T10:41:30.549Z,10.59
2023-02-03T10:42:30.574Z,10.59
2023-02-03T10:43:30.500Z,10.60
2023-02-03T10:44:30.513Z,10.60
2023-02-03T10:45:30.496Z,10.61
2023-02-03T10:46:30.579Z,10.64
2023-02-03T10:47:30.499Z,10.64
2023-02-03T10:48:30.415Z,10.61
2023-02-03T10:49:30.405Z,10.60
2023-02-03T10:50:30.905Z,10.60
2023-02-03T10:51:30.455Z,10.60
2023-02-03T10:52:30.440Z,10.61
2023-02-03T10:53:30.391Z,10.61
2023-02-03T10:54:30.359Z,10.61
2023-02-03T10:55:30.328Z,10.67
2023-02-03T10:56:30.303Z,10.63
2023-02-03T10:57:30.393Z,10.63
2023-02-03T10:58:30.337Z,10.60
2023-02-03T10:59:30.281Z,10.63
2023-02-03T11:00:30.637Z,10.63
2023-02-03T11:01:30.339Z,10.61
2023-02-03T11:02:30.306Z,10.60
2023-02-03T11:03:30.251Z,10.61
2023-02-03T11:04:30.200Z,10.60
2023-02-03T11:05:35.769Z,10.66
2023-02-03T11:06:30.157Z,10.64
2023-02-03T11:07:30.186Z,10.63
2023-02-03T11:08:30.157Z,10.66
2023-02-03T11:09:30.135Z,10.66
2023-02-03T11:10:30.412Z,10.66
2023-02-03T11:11:30.096Z,10.66
2023-02-03T11:12:30.080Z,10.67
2023-02-03T11:13:30.063Z,10.67
2023-02-03T11:14:30.183Z,10.68
2023-02-03T11:15:30.152Z,10.64
2023-02-03T11:16:30.025Z,10.67
2023-02-03T11:17:30.095Z,10.64
2023-02-03T11:18:30.075Z,10.64
2023-02-03T11:19:29.976Z,10.67
2023-02-03T11:20:30.375Z,10.64
2023-02-03T11:21:30.095Z,10.66
2023-02-03T11:22:29.937Z,10.66
2023-02-03T11:23:29.927Z,10.64
2023-02-03T11:24:29.926Z,10.64
2023-02-03T11:25:29.907Z,10.63
2023-02-03T11:26:29.896Z,10.67
2023-02-03T11:27:29.869Z,10.66
2023-02-03T11:28:29.862Z,10.68
2023-02-03T11:29:29.835Z,10.68
2023-02-03T11:30:30.083Z,10.67
2023-02-03T11:31:29.903Z,10.68
2023-02-03T11:32:29.794Z,10.68
2023-02-03T11:33:29.817Z,10.67
2023-02-03T11:34:29.784Z,10.71
2023-02-03T11:35:29.752Z,10.68
2023-02-03T11:36:29.750Z,10.71
2023-02-03T11:37:29.752Z,10.71
2023-02-03T11:38:29.730Z,10.70
2023-02-03T11:39:29.713Z,10.73
2023-02-03T11:40:29.990Z,10.73
2023-02-03T11:41:29.670Z,10.76
2023-02-03T11:42:29.692Z,10.73
2023-02-03T11:43:29.674Z,10.76
2023-02-03T11:44:29.717Z,10.71
2023-02-03T11:45:29.684Z,10.73
2023-02-03T11:46:29.624Z,10.74
2023-02-03T11:47:29.602Z,10.76
2023-02-03T11:48:29.628Z,10.76
2023-02-03T11:49:29.572Z,10.76
2023-02-03T11:50:29.879Z,10.78
2023-02-03T11:51:29.532Z,10.78
2023-02-03T11:52:29.529Z,10.84
2023-02-03T11:53:29.520Z,10.82
2023-02-03T11:54:29.494Z,10.84
2023-02-03T11:55:29.472Z,10.84
2023-02-03T11:56:29.513Z,10.86
2023-02-03T11:57:29.437Z,10.85
2023-02-03T11:58:29.436Z,10.91
2023-02-03T11:59:29.424Z,10.88
2023-02-03T12:00:29.699Z,10.91
2023-02-03T12:01:29.404Z,10.89
2023-02-03T12:02:29.443Z,10.86
2023-02-03T12:03:29.356Z,10.92
2023-02-03T12:04:29.373Z,10.89
2023-02-03T12:05:29.323Z,10.92
2023-02-03T12:06:29.292Z,10.96
2023-02-03T12:07:29.297Z,10.96
2023-02-03T12:08:29.278Z,10.91
2023-02-03T12:09:29.321Z,10.92
2023-02-03T12:10:29.674Z,10.92
2023-02-03T12:11:29.230Z,10.91
2023-02-03T12:12:29.234Z,10.91
2023-02-03T12:13:29.265Z,10.92
2023-02-03T12:14:29.249Z,10.92
2023-02-03T12:15:30.142Z,10.94
2023-02-03T12:16:29.228Z,10.92
2023-02-03T12:17:29.149Z,10.94
2023-02-03T12:18:29.156Z,10.96
2023-02-03T12:19:37.930Z,10.92
2023-02-03T12:20:29.476Z,10.94
2023-02-03T12:21:29.131Z,10.96
2023-02-03T12:22:29.089Z,10.89
2023-02-03T12:23:29.110Z,10.89
2023-02-03T12:24:29.050Z,10.89
2023-02-03T12:25:29.044Z,10.89
2023-02-03T12:26:29.110Z,10.89
2023-02-03T12:27:29.007Z,10.88
2023-02-03T12:28:33.751Z,10.89
2023-02-03T12:29:32.054Z,10.91
2023-02-03T12:30:29.504Z,10.92
2023-02-03T12:31:29.062Z,10.89
2023-02-03T12:32:29.026Z,10.88
2023-02-03T12:33:28.919Z,10.88
2023-02-03T12:34:28.898Z,10.89
2023-02-03T12:35:31.090Z,10.85
2023-02-03T12:36:28.884Z,10.88
2023-02-03T12:37:28.862Z,10.85
2023-02-03T12:38:28.833Z,10.85
2023-02-03T12:39:28.912Z,10.84
2023-02-03T12:40:29.046Z,10.85
2023-02-03T12:41:28.793Z,10.86
2023-02-03T12:42:28.801Z,10.82
2023-02-03T12:43:28.801Z,10.78
2023-02-03T12:44:28.742Z,10.78
2023-02-03T12:45:28.910Z,10.79
2023-02-03T12:46:28.738Z,10.78
2023-02-03T12:47:28.714Z,10.76
2023-02-03T12:48:28.695Z,10.73
2023-02-03T12:49:28.681Z,10.71
2023-02-03T12:50:39.940Z,10.71
2023-02-03T12:51:28.702Z,10.71
2023-02-03T12:52:28.654Z,10.68
2023-02-03T12:53:29.426Z,10.68
2023-02-03T12:54:28.630Z,10.67
2023-02-03T12:55:28.601Z,10.64
2023-02-03T12:56:28.585Z,10.66
2023-02-03T12:57:28.589Z,10.66
2023-02-03T12:58:28.548Z,10.67
2023-02-03T12:59:28.548Z,10.70
2023-02-03T13:00:28.785Z,10.74
2023-02-03T13:01:28.641Z,10.76
2023-02-03T13:02:28.569Z,10.73
2023-02-03T13:03:28.511Z,10.76
2023-02-03T13:04:28.469Z,10.79
2023-02-03T13:05:28.443Z,10.79
2023-02-03T13:06:28.415Z,10.85
2023-02-03T13:07:28.436Z,10.88
2023-02-03T13:08:28.404Z,10.91
2023-02-03T13:09:28.397Z,10.94
2023-02-03T13:10:28.696Z,10.99